sensor_id;sensor_type;location;lat;lon;timestamp;pressure;altitude;pressure_sealevel;temperature;humidity
10606;BME280;5350;42.698;23.148;2022-09-21T00:01:09;93774.53;;;7.59;100.00
10606;BME280;5350;42.698;23.148;2022-09-21T00:03:36;93775.81;;;7.62;100.00
10606;BME280;5350;42.698;23.148;2022-09-21T00:06:03;93775.84;;;7.52;100.00
10606;BME280;5350;42.698;23.148;2022-09-21T00:08:31;93770.59;;;7.57;100.00
10606;BME280;5350;42.698;23.148;2022-09-21T00:10:58;93774.25;;;7.61;100.00
10606;BME280;5350;42.698;23.148;2022-09-21T00:13:25;93778.44;;;7.57;100.00
10606;BME280;5350;42.698;23.148;2022-09-21T00:15:52;93781.63;;;7.49;100.00
10606;BME280;5350;42.698;23.148;2022-09-21T00:18:19;93771.94;;;7.44;100.00
10606;BME280;5350;42.698;23.148;2022-09-21T00:20:45;93770.63;;;7.42;100.00
10606;BME280;5350;42.698;23.148;2022-09-21T00:23:12;93774.03;;;7.42;100.00
10606;BME280;5350;42.698;23.148;2022-09-21T00:25:40;93777.97;;;7.45;100.00
10606;BME280;5350;42.698;23.148;2022-09-21T00:28:06;93750.25;;;7.28;100.00
10606;BME280;5350;42.698;23.148;2022-09-21T00:30:33;93771.16;;;7.49;100.00
10606;BME280;5350;42.698;23.148;2022-09-21T00:32:59;93770.88;;;7.50;100.00
10606;BME280;5350;42.698;23.148;2022-09-21T00:35:26;93781.06;;;7.52;100.00
10606;BME280;5350;42.698;23.148;2022-09-21T00:37:52;93776.38;;;7.49;100.00
10606;BME280;5350;42.698;23.148;2022-09-21T00:40:19;93778.44;;;7.52;100.00
10606;BME280;5350;42.698;23.148;2022-09-21T00:42:47;93769.06;;;7.41;100.00
10606;BME280;5350;42.698;23.148;2022-09-21T00:45:14;93771.66;;;7.46;100.00
10606;BME280;5350;42.698;23.148;2022-09-21T00:47:46;93779.28;;;7.42;100.00
10606;BME280;5350;42.698;23.148;2022-09-21T00:50:15;93778.22;;;7.43;100.00
10606;BME280;5350;42.698;23.148;2022-09-21T00:52:43;93769.56;;;7.43;100.00
10606;BME280;5350;42.698;23.148;2022-09-21T00:55:11;93769.84;;;7.41;100.00
10606;BME280;5350;42.698;23.148;2022-09-21T00:57:41;93772.72;;;7.35;100.00
10606;BME280;5350;42.698;23.148;2022-09-21T01:00:10;93776.41;;;7.34;100.00
10606;BME280;5350;42.698;23.148;2022-09-21T01:02:36;93777.44;;;7.33;100.00
10606;BME280;5350;42.698;23.148;2022-09-21T01:05:04;93774.03;;;7.37;100.00
10606;BME280;5350;42.698;23.148;2022-09-21T01:07:31;93771.94;;;7.39;100.00
10606;BME280;5350;42.698;23.148;2022-09-21T01:10:00;93774.03;;;7.37;100.00
10606;BME280;5350;42.698;23.148;2022-09-21T01:12:35;93778.22;;;7.33;100.00
10606;BME280;5350;42.698;23.148;2022-09-21T01:15:07;93780.09;;;7.17;100.00
10606;BME280;5350;42.698;23.148;2022-09-21T01:17:41;93777.75;;;7.21;100.00
10606;BME280;5350;42.698;23.148;2022-09-21T01:20:24;93767.03;;;7.12;100.00
10606;BME280;5350;42.698;23.148;2022-09-21T01:22:58;93766.75;;;7.14;100.00
10606;BME280;5350;42.698;23.148;2022-09-21T01:25:29;93768.56;;;7.18;100.00
10606;BME280;5350;42.698;23.148;2022-09-21T01:28:05;93762.84;;;7.06;100.00
10606;BME280;5350;42.698;23.148;2022-09-21T01:30:35;93761.28;;;6.95;100.00
10606;BME280;5350;42.698;23.148;2022-09-21T01:33:04;93758.16;;;6.83;100.00
10606;BME280;5350;42.698;23.148;2022-09-21T01:35:33;93752.91;;;6.78;100.00
10606;BME280;5350;42.698;23.148;2022-09-21T01:38:04;93749.50;;;6.68;100.00
10606;BME280;5350;42.698;23.148;2022-09-21T01:40:32;93751.09;;;6.74;100.00
10606;BME280;5350;42.698;23.148;2022-09-21T01:43:01;93746.91;;;6.78;100.00
10606;BME280;5350;42.698;23.148;2022-09-21T01:45:29;93753.97;;;6.77;100.00
10606;BME280;5350;42.698;23.148;2022-09-21T01:47:59;93747.94;;;6.77;100.00
10606;BME280;5350;42.698;23.148;2022-09-21T01:50:26;93753.44;;;6.85;100.00
10606;BME280;5350;42.698;23.148;2022-09-21T01:52:56;93753.44;;;6.90;100.00
10606;BME280;5350;42.698;23.148;2022-09-21T01:55:26;93753.94;;;6.97;100.00
10606;BME280;5350;42.698;23.148;2022-09-21T01:57:55;93752.66;;;6.90;100.00
10606;BME280;5350;42.698;23.148;2022-09-21T02:00:24;93744.56;;;6.81;100.00
10606;BME280;5350;42.698;23.148;2022-09-21T02:02:52;93751.34;;;6.87;100.00
10606;BME280;5350;42.698;23.148;2022-09-21T02:05:24;93751.84;;;6.84;100.00
10606;BME280;5350;42.698;23.148;2022-09-21T02:07:51;93754.75;;;6.78;100.00
10606;BME280;5350;42.698;23.148;2022-09-21T02:10:19;93754.22;;;6.86;100.00
10606;BME280;5350;42.698;23.148;2022-09-21T02:12:48;93751.09;;;6.79;100.00
10606;BME280;5350;42.698;23.148;2022-09-21T02:15:18;93755.53;;;6.78;100.00
10606;BME280;5350;42.698;23.148;2022-09-21T02:17:49;93756.56;;;6.82;100.00
10606;BME280;5350;42.698;23.148;2022-09-21T02:20:22;93757.63;;;6.81;100.00
10606;BME280;5350;42.698;23.148;2022-09-21T02:22:59;93762.31;;;6.84;100.00
10606;BME280;5350;42.698;23.148;2022-09-21T02:25:31;93763.38;;;6.88;100.00
10606;BME280;5350;42.698;23.148;2022-09-21T02:28:03;93763.38;;;6.78;100.00
10606;BME280;5350;42.698;23.148;2022-09-21T02:30:32;93761.81;;;6.77;100.00
10606;BME280;5350;42.698;23.148;2022-09-21T02:33:02;93761.03;;;6.77;100.00
10606;BME280;5350;42.698;23.148;2022-09-21T02:35:31;93760.78;;;6.73;100.00
10606;BME280;5350;42.698;23.148;2022-09-21T02:38:05;93759.19;;;6.77;100.00
10606;BME280;5350;42.698;23.148;2022-09-21T02:40:33;93756.06;;;6.75;100.00
10606;BME280;5350;42.698;23.148;2022-09-21T02:43:02;93752.16;;;6.78;100.00
10606;BME280;5350;42.698;23.148;2022-09-21T02:45:31;93761.28;;;6.85;100.00
10606;BME280;5350;42.698;23.148;2022-09-21T02:47:59;93763.38;;;6.93;100.00
10606;BME280;5350;42.698;23.148;2022-09-21T02:50:29;93759.72;;;6.89;100.00
10606;BME280;5350;42.698;23.148;2022-09-21T02:52:58;93759.44;;;6.81;100.00
10606;BME280;5350;42.698;23.148;2022-09-21T02:55:27;93756.84;;;6.86;100.00
10606;BME280;5350;42.698;23.148;2022-09-21T02:57:54;93749.53;;;6.88;100.00
10606;BME280;5350;42.698;23.148;2022-09-21T03:00:21;93761.56;;;6.84;100.00
10606;BME280;5350;42.698;23.148;2022-09-21T03:02:48;93754.47;;;6.74;100.00
10606;BME280;5350;42.698;23.148;2022-09-21T03:05:14;93763.13;;;6.80;100.00
10606;BME280;5350;42.698;23.148;2022-09-21T03:07:41;93761.53;;;6.89;100.00
10606;BME280;5350;42.698;23.148;2022-09-21T03:10:08;93764.66;;;6.91;100.00
10606;BME280;5350;42.698;23.148;2022-09-21T03:12:36;93763.91;;;6.75;100.00
10606;BME280;5350;42.698;23.148;2022-09-21T03:15:03;93773.03;;;6.83;100.00
10606;BME280;5350;42.698;23.148;2022-09-21T03:17:29;93769.38;;;6.79;100.00
10606;BME280;5350;42.698;23.148;2022-09-21T03:19:56;93770.16;;;6.74;100.00
10606;BME280;5350;42.698;23.148;2022-09-21T03:22:22;93767.56;;;6.69;100.00
10606;BME280;5350;42.698;23.148;2022-09-21T03:24:49;93767.31;;;6.86;100.00
10606;BME280;5350;42.698;23.148;2022-09-21T03:27:17;93771.47;;;6.72;100.00
10606;BME280;5350;42.698;23.148;2022-09-21T03:29:45;93770.94;;;6.85;100.00
10606;BME280;5350;42.698;23.148;2022-09-21T03:32:12;93769.41;;;6.74;100.00
10606;BME280;5350;42.698;23.148;2022-09-21T03:34:39;93775.94;;;6.61;100.00
10606;BME280;5350;42.698;23.148;2022-09-21T03:37:06;93773.56;;;6.50;100.00
10606;BME280;5350;42.698;23.148;2022-09-21T03:39:33;93776.72;;;6.57;100.00
10606;BME280;5350;42.698;23.148;2022-09-21T03:42:00;93774.09;;;6.57;100.00
10606;BME280;5350;42.698;23.148;2022-09-21T03:44:28;93769.13;;;6.50;100.00
10606;BME280;5350;42.698;23.148;2022-09-21T03:46:56;93777.44;;;6.27;100.00
10606;BME280;5350;42.698;23.148;2022-09-21T03:49:22;93775.38;;;6.34;100.00
10606;BME280;5350;42.698;23.148;2022-09-21T03:51:49;93780.06;;;6.37;100.00
10606;BME280;5350;42.698;23.148;2022-09-21T03:54:15;93779.56;;;6.30;100.00
10606;BME280;5350;42.698;23.148;2022-09-21T03:56:42;93773.28;;;6.36;100.00
10606;BME280;5350;42.698;23.148;2022-09-21T03:59:09;93781.63;;;6.43;100.00
10606;BME280;5350;42.698;23.148;2022-09-21T04:01:35;93784.81;;;6.50;100.00
10606;BME280;5350;42.698;23.148;2022-09-21T04:04:04;93784.81;;;6.50;100.00
10606;BME280;5350;42.698;23.148;2022-09-21T04:06:30;93782.44;;;6.49;100.00
10606;BME280;5350;42.698;23.148;2022-09-21T04:08:57;93791.59;;;6.56;100.00
10606;BME280;5350;42.698;23.148;2022-09-21T04:11:24;93792.13;;;6.58;100.00
10606;BME280;5350;42.698;23.148;2022-09-21T04:13:51;93790.03;;;6.65;100.00
10606;BME280;5350;42.698;23.148;2022-09-21T04:16:21;93791.34;;;6.68;100.00
10606;BME280;5350;42.698;23.148;2022-09-21T04:18:48;93785.06;;;6.69;100.00
10606;BME280;5350;42.698;23.148;2022-09-21T04:21:16;93790.06;;;6.90;100.00
10606;BME280;5350;42.698;23.148;2022-09-21T04:23:43;93789.53;;;6.88;100.00
10606;BME280;5350;42.698;23.148;2022-09-21T04:26:19;93788.22;;;6.91;100.00
10606;BME280;5350;42.698;23.148;2022-09-21T04:28:47;93786.38;;;6.91;100.00
10606;BME280;5350;42.698;23.148;2022-09-21T04:31:13;93783.25;;;6.99;100.00
10606;BME280;5350;42.698;23.148;2022-09-21T04:33:40;93786.13;;;6.98;100.00
10606;BME280;5350;42.698;23.148;2022-09-21T04:36:06;93787.97;;;7.02;100.00
10606;BME280;5350;42.698;23.148;2022-09-21T04:38:34;93791.34;;;7.08;100.00
10606;BME280;5350;42.698;23.148;2022-09-21T04:41:01;93787.94;;;7.12;100.00
10606;BME280;5350;42.698;23.148;2022-09-21T04:43:28;93788.47;;;7.19;100.00
10606;BME280;5350;42.698;23.148;2022-09-21T04:45:54;93778.78;;;7.20;100.00
10606;BME280;5350;42.698;23.148;2022-09-21T04:48:21;93781.66;;;7.23;100.00
10606;BME280;5350;42.698;23.148;2022-09-21T04:50:47;93787.41;;;7.20;100.00
10606;BME280;5350;42.698;23.148;2022-09-21T04:53:14;93784.00;;;7.20;100.00
10606;BME280;5350;42.698;23.148;2022-09-21T04:55:43;93783.75;;;7.26;100.00
10606;BME280;5350;42.698;23.148;2022-09-21T04:58:10;93789.50;;;7.28;100.00
10606;BME280;5350;42.698;23.148;2022-09-21T05:00:36;93794.72;;;7.34;100.00
10606;BME280;5350;42.698;23.148;2022-09-21T05:03:03;93791.31;;;7.38;100.00
10606;BME280;5350;42.698;23.148;2022-09-21T05:05:29;93810.94;;;7.51;100.00
10606;BME280;5350;42.698;23.148;2022-09-21T05:07:57;93794.66;;;7.64;100.00
10606;BME280;5350;42.698;23.148;2022-09-21T05:10:24;93797.25;;;7.69;100.00
10606;BME280;5350;42.698;23.148;2022-09-21T05:12:50;93798.28;;;7.68;100.00
10606;BME280;5350;42.698;23.148;2022-09-21T05:15:17;93802.47;;;7.79;100.00
10606;BME280;5350;42.698;23.148;2022-09-21T05:17:44;93801.41;;;7.85;100.00
10606;BME280;5350;42.698;23.148;2022-09-21T05:20:11;93802.16;;;7.95;100.00
10606;BME280;5350;42.698;23.148;2022-09-21T05:22:37;93802.38;;;8.09;100.00
10606;BME280;5350;42.698;23.148;2022-09-21T05:25:04;93803.91;;;8.10;100.00
10606;BME280;5350;42.698;23.148;2022-09-21T05:27:31;93806.00;;;8.13;100.00
10606;BME280;5350;42.698;23.148;2022-09-21T05:29:59;93790.81;;;8.15;100.00
10606;BME280;5350;42.698;23.148;2022-09-21T05:32:26;93800.44;;;8.25;100.00
10606;BME280;5350;42.698;23.148;2022-09-21T05:35:00;93801.25;;;8.30;100.00
10606;BME280;5350;42.698;23.148;2022-09-21T05:37:34;93803.81;;;8.40;100.00
10606;BME280;5350;42.698;23.148;2022-09-21T05:40:04;93802.66;;;8.56;100.00
10606;BME280;5350;42.698;23.148;2022-09-21T05:42:31;93798.75;;;8.54;100.00
10606;BME280;5350;42.698;23.148;2022-09-21T05:44:59;93801.03;;;8.65;100.00
10606;BME280;5350;42.698;23.148;2022-09-21T05:47:27;93802.00;;;8.74;100.00
10606;BME280;5350;42.698;23.148;2022-09-21T05:50:02;93806.72;;;8.77;100.00
10606;BME280;5350;42.698;23.148;2022-09-21T05:52:32;93806.94;;;8.86;100.00
10606;BME280;5350;42.698;23.148;2022-09-21T05:55:02;93804.75;;;8.93;100.00
10606;BME280;5350;42.698;23.148;2022-09-21T05:57:38;93806.53;;;9.03;100.00
10606;BME280;5350;42.698;23.148;2022-09-21T06:00:15;93808.00;;;9.14;100.00
10606;BME280;5350;42.698;23.148;2022-09-21T06:02:46;93801.69;;;9.20;100.00
10606;BME280;5350;42.698;23.148;2022-09-21T06:05:15;93807.94;;;9.24;100.00
10606;BME280;5350;42.698;23.148;2022-09-21T06:07:42;93800.28;;;9.32;100.00
10606;BME280;5350;42.698;23.148;2022-09-21T06:10:09;93807.53;;;9.40;100.00
10606;BME280;5350;42.698;23.148;2022-09-21T06:12:37;93808.28;;;9.46;100.00
10606;BME280;5350;42.698;23.148;2022-09-21T06:15:04;93805.84;;;9.49;100.00
10606;BME280;5350;42.698;23.148;2022-09-21T06:17:32;93804.44;;;9.62;100.00
10606;BME280;5350;42.698;23.148;2022-09-21T06:19:59;93808.53;;;9.73;100.00
10606;BME280;5350;42.698;23.148;2022-09-21T06:22:27;93810.50;;;9.86;100.00
10606;BME280;5350;42.698;23.148;2022-09-21T06:24:53;93808.91;;;9.85;100.00
10606;BME280;5350;42.698;23.148;2022-09-21T06:27:19;93818.19;;;10.01;100.00
10606;BME280;5350;42.698;23.148;2022-09-21T06:29:46;93816.75;;;10.14;100.00
10606;BME280;5350;42.698;23.148;2022-09-21T06:32:12;93817.41;;;10.24;100.00
10606;BME280;5350;42.698;23.148;2022-09-21T06:34:40;93821.44;;;10.40;100.00
10606;BME280;5350;42.698;23.148;2022-09-21T06:37:07;93821.72;;;10.58;100.00
10606;BME280;5350;42.698;23.148;2022-09-21T06:39:34;93819.63;;;10.60;100.00
10606;BME280;5350;42.698;23.148;2022-09-21T06:42:00;93825.88;;;10.82;100.00
10606;BME280;5350;42.698;23.148;2022-09-21T06:44:27;93837.09;;;10.88;100.00
10606;BME280;5350;42.698;23.148;2022-09-21T06:46:54;93836.31;;;11.06;100.00
10606;BME280;5350;42.698;23.148;2022-09-21T06:49:21;93836.25;;;11.11;100.00
10606;BME280;5350;42.698;23.148;2022-09-21T06:51:49;93841.06;;;11.22;100.00
10606;BME280;5350;42.698;23.148;2022-09-21T06:54:15;93849.19;;;11.26;100.00
10606;BME280;5350;42.698;23.148;2022-09-21T06:56:42;93850.44;;;11.28;100.00
10606;BME280;5350;42.698;23.148;2022-09-21T06:59:09;93857.56;;;11.28;100.00
10606;BME280;5350;42.698;23.148;2022-09-21T07:01:36;93860.69;;;11.30;100.00
10606;BME280;5350;42.698;23.148;2022-09-21T07:04:02;93857.91;;;11.40;100.00
10606;BME280;5350;42.698;23.148;2022-09-21T07:06:29;93861.69;;;11.34;100.00
10606;BME280;5350;42.698;23.148;2022-09-21T07:08:57;93857.91;;;11.40;100.00
10606;BME280;5350;42.698;23.148;2022-09-21T07:11:23;93858.47;;;11.37;100.00
10606;BME280;5350;42.698;23.148;2022-09-21T07:13:51;93858.03;;;11.49;100.00
10606;BME280;5350;42.698;23.148;2022-09-21T07:16:18;93861.16;;;11.51;100.00
10606;BME280;5350;42.698;23.148;2022-09-21T07:18:45;93854.53;;;11.53;99.62
10606;BME280;5350;42.698;23.148;2022-09-21T07:21:13;93855.44;;;11.62;100.00
10606;BME280;5350;42.698;23.148;2022-09-21T07:23:39;93852.28;;;11.79;100.00
10606;BME280;5350;42.698;23.148;2022-09-21T07:26:09;93859.72;;;11.90;95.34
10606;BME280;5350;42.698;23.148;2022-09-21T07:28:36;93863.78;;;11.83;98.76
10606;BME280;5350;42.698;23.148;2022-09-21T07:31:05;93866.03;;;11.76;95.21
10606;BME280;5350;42.698;23.148;2022-09-21T07:33:33;93870.41;;;11.67;93.62
10606;BME280;5350;42.698;23.148;2022-09-21T07:36:00;93870.53;;;11.57;94.75
10606;BME280;5350;42.698;23.148;2022-09-21T07:38:28;93875.03;;;11.56;96.20
10606;BME280;5350;42.698;23.148;2022-09-21T07:40:55;93868.59;;;11.62;96.63
10606;BME280;5350;42.698;23.148;2022-09-21T07:43:23;93865.69;;;11.64;100.00
10606;BME280;5350;42.698;23.148;2022-09-21T07:45:52;93869.66;;;11.80;100.00
10606;BME280;5350;42.698;23.148;2022-09-21T07:48:20;93863.53;;;11.84;98.12
10606;BME280;5350;42.698;23.148;2022-09-21T07:50:47;93878.47;;;11.89;95.57
10606;BME280;5350;42.698;23.148;2022-09-21T07:53:13;93878.19;;;11.90;91.51
10606;BME280;5350;42.698;23.148;2022-09-21T07:55:40;93874.38;;;11.96;93.86
10606;BME280;5350;42.698;23.148;2022-09-21T07:58:07;93869.63;;;12.26;90.26
10606;BME280;5350;42.698;23.148;2022-09-21T08:00:53;93877.72;;;12.16;92.76
10606;BME280;5350;42.698;23.148;2022-09-21T08:03:20;93863.66;;;12.34;89.22
10606;BME280;5350;42.698;23.148;2022-09-21T08:05:46;93870.97;;;12.50;88.41
10606;BME280;5350;42.698;23.148;2022-09-21T08:08:13;93868.34;;;12.64;87.07
10606;BME280;5350;42.698;23.148;2022-09-21T08:10:41;93867.13;;;12.83;86.64
10606;BME280;5350;42.698;23.148;2022-09-21T08:13:07;93872.09;;;12.85;80.19
10606;BME280;5350;42.698;23.148;2022-09-21T08:15:33;93864.78;;;12.82;83.30
10606;BME280;5350;42.698;23.148;2022-09-21T08:18:02;93862.41;;;12.94;84.93
10606;BME280;5350;42.698;23.148;2022-09-21T08:20:29;93874.34;;;13.05;79.90
10606;BME280;5350;42.698;23.148;2022-09-21T08:22:56;93868.00;;;12.79;82.69
10606;BME280;5350;42.698;23.148;2022-09-21T08:25:22;93858.06;;;12.76;83.70
10606;BME280;5350;42.698;23.148;2022-09-21T08:27:49;93859.13;;;12.75;84.19
10606;BME280;5350;42.698;23.148;2022-09-21T08:30:15;93864.78;;;12.82;85.00
10606;BME280;5350;42.698;23.148;2022-09-21T08:32:42;93860.97;;;12.88;85.10
10606;BME280;5350;42.698;23.148;2022-09-21T08:35:10;93857.13;;;12.94;87.37
10606;BME280;5350;42.698;23.148;2022-09-21T08:37:36;93864.94;;;12.99;82.02
10606;BME280;5350;42.698;23.148;2022-09-21T08:40:03;93859.47;;;12.96;85.47
10606;BME280;5350;42.698;23.148;2022-09-21T08:42:38;93864.47;;;12.97;78.70
10606;BME280;5350;42.698;23.148;2022-09-21T08:45:08;93864.00;;;12.95;78.52
10606;BME280;5350;42.698;23.148;2022-09-21T08:47:39;93849.50;;;13.06;79.98
10606;BME280;5350;42.698;23.148;2022-09-21T08:50:12;93847.38;;;13.30;80.06
10606;BME280;5350;42.698;23.148;2022-09-21T08:52:45;93853.00;;;13.37;78.06
10606;BME280;5350;42.698;23.148;2022-09-21T08:55:14;93843.66;;;13.53;72.17
10606;BME280;5350;42.698;23.148;2022-09-21T08:57:42;93841.72;;;13.68;75.29
10606;BME280;5350;42.698;23.148;2022-09-21T09:00:12;93841.66;;;13.90;74.79
10606;BME280;5350;42.698;23.148;2022-09-21T09:02:41;93841.41;;;14.00;73.72
10606;BME280;5350;42.698;23.148;2022-09-21T09:10:36;93843.19;;;13.51;71.34
10606;BME280;5350;42.698;23.148;2022-09-21T09:13:13;93836.19;;;13.55;73.88
10606;BME280;5350;42.698;23.148;2022-09-21T09:15:44;93835.03;;;13.70;75.47
10606;BME280;5350;42.698;23.148;2022-09-21T09:18:15;93829.97;;;13.51;76.31
10606;BME280;5350;42.698;23.148;2022-09-21T09:20:44;93829.50;;;13.58;78.89
10606;BME280;5350;42.698;23.148;2022-09-21T09:23:12;93832.22;;;13.44;72.54
10606;BME280;5350;42.698;23.148;2022-09-21T09:25:45;93823.88;;;13.51;75.11
10606;BME280;5350;42.698;23.148;2022-09-21T09:28:16;93831.69;;;13.56;74.62
10606;BME280;5350;42.698;23.148;2022-09-21T09:30:45;93819.72;;;13.58;74.41
10606;BME280;5350;42.698;23.148;2022-09-21T09:33:15;93817.75;;;13.64;78.42
10606;BME280;5350;42.698;23.148;2022-09-21T09:35:45;93808.56;;;13.92;74.80
10606;BME280;5350;42.698;23.148;2022-09-21T09:38:14;93812.19;;;14.05;71.73
10606;BME280;5350;42.698;23.148;2022-09-21T09:40:51;93801.00;;;14.08;72.77
10606;BME280;5350;42.698;23.148;2022-09-21T09:43:25;93805.47;;;13.99;72.37
10606;BME280;5350;42.698;23.148;2022-09-21T09:45:58;93794.59;;;14.00;73.02
10606;BME280;5350;42.698;23.148;2022-09-21T09:48:34;93802.34;;;13.97;69.18
10606;BME280;5350;42.698;23.148;2022-09-21T09:51:03;93802.16;;;13.85;64.32
10606;BME280;5350;42.698;23.148;2022-09-21T09:53:30;93805.97;;;13.48;65.55
10606;BME280;5350;42.698;23.148;2022-09-21T09:55:59;93805.91;;;13.39;65.08
10606;BME280;5350;42.698;23.148;2022-09-21T09:58:29;93807.63;;;13.13;67.48
10606;BME280;5350;42.698;23.148;2022-09-21T10:00:58;93806.41;;;13.19;68.97
10606;BME280;5350;42.698;23.148;2022-09-21T10:03:25;93803.84;;;13.28;70.53
10606;BME280;5350;42.698;23.148;2022-09-21T10:05:52;93807.06;;;13.47;69.24
10606;BME280;5350;42.698;23.148;2022-09-21T10:08:31;93811.06;;;13.67;64.32
10606;BME280;5350;42.698;23.148;2022-09-21T10:11:07;93790.13;;;14.09;64.64
10606;BME280;5350;42.698;23.148;2022-09-21T10:13:34;93784.34;;;14.47;65.99
10606;BME280;5350;42.698;23.148;2022-09-21T10:16:02;93795.28;;;14.79;61.26
10606;BME280;5350;42.698;23.148;2022-09-21T10:18:32;93770.84;;;14.91;60.89
10606;BME280;5350;42.698;23.148;2022-09-21T10:21:00;93777.84;;;15.12;59.83
10606;BME280;5350;42.698;23.148;2022-09-21T10:23:28;93777.81;;;15.30;55.96
10606;BME280;5350;42.698;23.148;2022-09-21T10:25:56;93764.72;;;15.59;58.66
10606;BME280;5350;42.698;23.148;2022-09-21T10:28:25;93766.53;;;15.75;58.44
10606;BME280;5350;42.698;23.148;2022-09-21T10:31:06;93760.50;;;15.58;57.29
10606;BME280;5350;42.698;23.148;2022-09-21T10:33:32;93767.56;;;15.19;56.31
10606;BME280;5350;42.698;23.148;2022-09-21T10:36:00;93759.59;;;14.94;59.48
10606;BME280;5350;42.698;23.148;2022-09-21T10:38:26;93754.78;;;14.53;60.88
10606;BME280;5350;42.698;23.148;2022-09-21T10:40:53;93756.94;;;14.51;63.21
10606;BME280;5350;42.698;23.148;2022-09-21T10:43:22;93763.16;;;14.38;61.56
10606;BME280;5350;42.698;23.148;2022-09-21T10:45:54;93759.44;;;14.56;60.66
10606;BME280;5350;42.698;23.148;2022-09-21T10:48:22;93751.97;;;14.75;55.76
10606;BME280;5350;42.698;23.148;2022-09-21T10:50:49;93761.31;;;14.56;57.43
10606;BME280;5350;42.698;23.148;2022-09-21T10:53:18;93755.47;;;14.28;58.23
10606;BME280;5350;42.698;23.148;2022-09-21T10:55:49;93764.63;;;14.13;59.41
10606;BME280;5350;42.698;23.148;2022-09-21T10:58:18;93774.09;;;14.14;52.90
10606;BME280;5350;42.698;23.148;2022-09-21T11:00:45;93763.81;;;14.13;55.36
10606;BME280;5350;42.698;23.148;2022-09-21T11:03:31;93760.16;;;14.31;54.86
10606;BME280;5350;42.698;23.148;2022-09-21T11:06:04;93757.25;;;14.58;53.43
10606;BME280;5350;42.698;23.148;2022-09-21T11:08:33;93752.78;;;14.84;52.25
10606;BME280;5350;42.698;23.148;2022-09-21T11:11:05;93748.41;;;15.05;50.87
10606;BME280;5350;42.698;23.148;2022-09-21T11:13:35;93747.28;;;15.23;47.77
10606;BME280;5350;42.698;23.148;2022-09-21T11:16:09;93732.66;;;15.17;47.40
10606;BME280;5350;42.698;23.148;2022-09-21T11:18:39;93731.25;;;15.20;48.09
10606;BME280;5350;42.698;23.148;2022-09-21T11:21:11;93734.84;;;14.98;50.74
10606;BME280;5350;42.698;23.148;2022-09-21T11:23:40;93730.81;;;14.92;52.62
10606;BME280;5350;42.698;23.148;2022-09-21T11:26:11;93731.91;;;14.91;53.43
10606;BME280;5350;42.698;23.148;2022-09-21T11:28:41;93738.28;;;14.73;48.27
10606;BME280;5350;42.698;23.148;2022-09-21T11:31:21;93738.88;;;14.53;52.85
10606;BME280;5350;42.698;23.148;2022-09-21T11:33:58;93750.78;;;14.25;54.10
10606;BME280;5350;42.698;23.148;2022-09-21T11:36:31;93749.47;;;13.97;51.46
10606;BME280;5350;42.698;23.148;2022-09-21T11:39:02;93743.56;;;14.00;53.78
10606;BME280;5350;42.698;23.148;2022-09-21T11:41:37;93751.31;;;13.96;51.11
10606;BME280;5350;42.698;23.148;2022-09-21T11:44:13;93742.75;;;13.91;51.68
10606;BME280;5350;42.698;23.148;2022-09-21T11:46:45;93738.84;;;13.88;52.20
10606;BME280;5350;42.698;23.148;2022-09-21T11:49:21;93735.00;;;13.94;53.01
10606;BME280;5350;42.698;23.148;2022-09-21T11:51:56;93747.19;;;14.21;53.88
10606;BME280;5350;42.698;23.148;2022-09-21T11:54:32;93747.16;;;14.60;54.81
10606;BME280;5350;42.698;23.148;2022-09-21T11:57:05;93735.47;;;14.61;57.23
10606;BME280;5350;42.698;23.148;2022-09-21T11:59:41;93735.63;;;14.73;56.76
10606;BME280;5350;42.698;23.148;2022-09-21T12:02:18;93741.84;;;14.94;56.73
10606;BME280;5350;42.698;23.148;2022-09-21T12:04:52;93738.13;;;14.95;57.93
10606;BME280;5350;42.698;23.148;2022-09-21T12:07:25;93730.78;;;15.01;55.95
10606;BME280;5350;42.698;23.148;2022-09-21T12:12:46;93756.81;;;14.99;55.09
10606;BME280;5350;42.698;23.148;2022-09-21T12:15:17;93747.91;;;14.61;57.18
10606;BME280;5350;42.698;23.148;2022-09-21T12:17:48;93743.38;;;14.35;58.84
10606;BME280;5350;42.698;23.148;2022-09-21T12:20:22;93745.88;;;14.40;58.31
10606;BME280;5350;42.698;23.148;2022-09-21T12:22:53;93751.66;;;14.51;58.43
10606;BME280;5350;42.698;23.148;2022-09-21T12:25:22;93746.22;;;14.99;57.08
10606;BME280;5350;42.698;23.148;2022-09-21T12:27:52;93743.69;;;15.28;55.31
10606;BME280;5350;42.698;23.148;2022-09-21T12:30:22;93751.78;;;15.49;54.60
10606;BME280;5350;42.698;23.148;2022-09-21T12:32:50;93764.75;;;15.33;51.75
10606;BME280;5350;42.698;23.148;2022-09-21T12:35:23;93749.22;;;15.69;54.18
10606;BME280;5350;42.698;23.148;2022-09-21T12:37:51;93745.81;;;16.07;52.37
10606;BME280;5350;42.698;23.148;2022-09-21T12:40:20;93743.19;;;16.27;49.95
10606;BME280;5350;42.698;23.148;2022-09-21T12:42:53;93731.06;;;16.47;49.40
10606;BME280;5350;42.698;23.148;2022-09-21T12:45:22;93744.84;;;16.40;50.06
10606;BME280;5350;42.698;23.148;2022-09-21T12:47:51;93735.84;;;16.33;50.35
10606;BME280;5350;42.698;23.148;2022-09-21T12:50:25;93735.97;;;16.36;50.69
10606;BME280;5350;42.698;23.148;2022-09-21T12:52:52;93747.84;;;16.39;51.66
10606;BME280;5350;42.698;23.148;2022-09-21T12:55:23;93733.72;;;16.47;52.27
10606;BME280;5350;42.698;23.148;2022-09-21T12:57:55;93732.41;;;16.32;51.59
10606;BME280;5350;42.698;23.148;2022-09-21T13:00:24;93744.00;;;16.57;51.56
10606;BME280;5350;42.698;23.148;2022-09-21T13:02:53;93739.88;;;16.89;50.01
10606;BME280;5350;42.698;23.148;2022-09-21T13:05:30;93736.94;;;16.82;49.41
10606;BME280;5350;42.698;23.148;2022-09-21T13:08:05;93726.13;;;17.40;50.56
10606;BME280;5350;42.698;23.148;2022-09-21T13:10:38;93727.53;;;17.58;48.25
10606;BME280;5350;42.698;23.148;2022-09-21T13:13:07;93731.84;;;17.30;48.54
10606;BME280;5350;42.698;23.148;2022-09-21T13:15:43;93731.44;;;16.87;48.09
10606;BME280;5350;42.698;23.148;2022-09-21T13:18:15;93729.31;;;16.80;49.44